POU weather

Dutchess County Airport
Poughkeepsie, New York, United States

Public forecast

Using degrees Fahrenheit for public forecast. Weather courtesy of forecast.io.

Current aviation weather report (METAR) for Dutchess County Airport

Retrieved 2019/10/17 12:53 UTC (1 hour ago):

KPOU 171253Z 24013G20KT 10SM OVC041 11/04 A2922 RMK AO2 SLP891 T01060044

Aviation forecast (TAF) for Dutchess County Airport

Retrieved 2019/10/17 12:39 UTC (1 hour ago):

TAF KPOU 171137Z 1712/1812 24012G22KT P6SM VCSH OVC040 FM171400 28020G32KT P6SM VCSH SCT025 BKN035 TEMPO 1714/1718 6SM -SHRA BR BKN030 FM171800 27019G32KT P6SM OVC035 FM180000 28015G26KT P6SM BKN035 FM180300 28011G19KT P6SM BKN040 FM180900 29008KT P6SM SCT040